createdAt,value
2023-01-30T00:00:04.220Z,5.74
2023-01-30T00:03:09.793Z,5.83
2023-01-30T00:06:15.545Z,5.72
2023-01-30T00:09:20.916Z,5.84
2023-01-30T00:12:26.170Z,5.52
2023-01-30T00:15:31.550Z,5.64
2023-01-30T00:18:37.003Z,5.75
2023-01-30T00:21:42.264Z,5.58
2023-01-30T00:24:48.047Z,5.51
2023-01-30T00:27:53.414Z,5.22
2023-01-30T00:30:58.785Z,5.20
2023-01-30T00:34:04.026Z,5.45
2023-01-30T00:37:09.348Z,5.45
2023-01-30T00:40:14.950Z,5.47
2023-01-30T00:43:38.972Z,5.39
2023-01-30T00:47:02.354Z,5.42
2023-01-30T00:50:08.402Z,5.31
2023-01-30T00:53:15.129Z,5.15
2023-01-30T00:56:20.460Z,5.14
2023-01-30T00:59:25.918Z,5.20
2023-01-30T01:02:31.229Z,5.37
2023-01-30T01:05:37.424Z,5.58
2023-01-30T01:08:42.876Z,5.45
2023-01-30T01:11:49.001Z,5.02
2023-01-30T01:14:54.242Z,5.29
2023-01-30T01:18:00.768Z,5.40
2023-01-30T01:21:06.389Z,5.68
2023-01-30T01:24:13.393Z,5.82
2023-01-30T01:27:19.497Z,5.80
2023-01-30T01:30:24.731Z,5.80
2023-01-30T01:33:30.339Z,5.70
2023-01-30T01:36:52.719Z,5.58
2023-01-30T01:40:17.029Z,5.86
2023-01-30T01:43:23.855Z,4.85
2023-01-30T01:46:32.179Z,4.22
2023-01-30T01:49:37.961Z,4.85
2023-01-30T01:52:43.931Z,5.28
2023-01-30T01:55:51.358Z,5.52
2023-01-30T01:58:58.388Z,5.65
2023-01-30T02:02:07.288Z,5.76
2023-01-30T02:05:13.777Z,5.94
2023-01-30T02:08:20.884Z,5.21
2023-01-30T02:11:30.719Z,4.02
2023-01-30T02:14:36.890Z,4.34
2023-01-30T02:17:42.215Z,4.66
2023-01-30T02:20:57.785Z,4.72
2023-01-30T02:24:18.711Z,5.01
2023-01-30T02:27:30.481Z,5.40
2023-01-30T02:30:44.061Z,5.53
2023-01-30T02:33:54.393Z,4.64
2023-01-30T02:37:05.491Z,3.81
2023-01-30T02:40:18.009Z,4.36
2023-01-30T02:43:28.722Z,4.74
2023-01-30T02:46:42.098Z,5.07
2023-01-30T02:49:49.895Z,5.31
2023-01-30T02:52:55.507Z,5.41
2023-01-30T02:56:00.888Z,4.82
2023-01-30T02:59:07.135Z,3.75
2023-01-30T03:02:22.392Z,4.10
2023-01-30T03:05:39.028Z,4.57
2023-01-30T03:08:47.909Z,4.96
2023-01-30T03:11:59.743Z,5.01
2023-01-30T03:15:11.751Z,4.78
2023-01-30T03:18:17.737Z,5.04
2023-01-30T03:21:22.981Z,5.13
2023-01-30T03:24:30.575Z,4.79
2023-01-30T03:27:36.360Z,3.60
2023-01-30T03:30:41.669Z,3.93
2023-01-30T03:33:48.390Z,4.34
2023-01-30T03:36:53.877Z,4.68
2023-01-30T03:40:01.235Z,4.88
2023-01-30T03:43:06.733Z,5.06
2023-01-30T03:46:12.356Z,5.04
2023-01-30T03:49:18.211Z,5.10
2023-01-30T03:52:23.533Z,5.24
2023-01-30T03:55:29.087Z,3.90
2023-01-30T03:58:34.859Z,3.46
2023-01-30T04:01:51.157Z,4.41
2023-01-30T04:04:56.856Z,4.55
2023-01-30T04:08:02.213Z,5.12
2023-01-30T04:11:07.731Z,5.43
2023-01-30T04:14:13.138Z,4.70
2023-01-30T04:17:29.684Z,3.46
2023-01-30T04:20:55.680Z,3.94
2023-01-30T04:24:07.752Z,4.59
2023-01-30T04:27:13.236Z,4.85
2023-01-30T04:30:26.189Z,5.09
2023-01-30T04:33:37.134Z,5.45
2023-01-30T04:36:42.882Z,5.40
2023-01-30T04:39:48.248Z,5.42
2023-01-30T04:42:53.588Z,5.52
2023-01-30T04:46:14.499Z,5.26
2023-01-30T04:49:19.955Z,5.04
2023-01-30T04:52:25.976Z,4.87
2023-01-30T04:55:31.491Z,4.95
2023-01-30T04:58:37.028Z,4.74
2023-01-30T05:01:42.499Z,4.69
2023-01-30T05:04:49.696Z,4.71
2023-01-30T05:07:55.438Z,4.82
2023-01-30T05:11:00.670Z,4.97
2023-01-30T05:14:06.289Z,5.12
2023-01-30T05:17:11.520Z,5.01
2023-01-30T05:20:17.035Z,4.90
2023-01-30T05:23:22.525Z,4.67
2023-01-30T05:26:27.964Z,4.92
2023-01-30T05:29:33.469Z,4.65
2023-01-30T05:32:39.000Z,4.84
2023-01-30T05:35:48.695Z,4.92
2023-01-30T05:38:54.531Z,4.64
2023-01-30T05:42:00.093Z,4.84
2023-01-30T05:45:05.811Z,5.03
2023-01-30T05:48:11.179Z,5.06
2023-01-30T05:51:21.124Z,5.18
2023-01-30T05:54:26.501Z,5.21
2023-01-30T05:57:31.778Z,5.08
2023-01-30T06:00:37.274Z,4.72
2023-01-30T06:03:42.576Z,4.56
2023-01-30T06:06:49.794Z,4.66
2023-01-30T06:09:54.996Z,4.68
2023-01-30T06:13:00.878Z,4.69
2023-01-30T06:16:06.993Z,4.92
2023-01-30T06:19:12.789Z,4.17
2023-01-30T06:22:18.337Z,4.04
2023-01-30T06:25:23.700Z,4.07
2023-01-30T06:28:29.139Z,4.33
2023-01-30T06:31:34.727Z,4.39
2023-01-30T06:34:40.129Z,4.36
2023-01-30T06:37:47.012Z,4.37
2023-01-30T06:40:52.497Z,4.33
2023-01-30T06:43:57.792Z,4.25
2023-01-30T06:47:03.380Z,4.46
2023-01-30T06:50:09.302Z,4.47
2023-01-30T06:53:14.611Z,4.48
2023-01-30T06:56:22.799Z,4.80
2023-01-30T06:59:28.323Z,4.62
2023-01-30T07:02:37.532Z,4.51
2023-01-30T07:05:43.989Z,4.44
2023-01-30T07:08:49.371Z,4.90
2023-01-30T07:11:56.987Z,4.80
2023-01-30T07:15:02.569Z,4.55
2023-01-30T07:18:08.202Z,4.80
2023-01-30T07:21:14.901Z,4.81
2023-01-30T07:24:20.566Z,4.84
2023-01-30T07:27:26.049Z,4.84
2023-01-30T07:30:32.743Z,5.00
2023-01-30T07:33:40.729Z,4.71
2023-01-30T07:36:46.002Z,4.64
2023-01-30T07:39:51.459Z,5.02
2023-01-30T07:43:03.710Z,4.90
2023-01-30T07:46:09.245Z,4.84
2023-01-30T07:49:14.709Z,5.04
2023-01-30T07:52:20.197Z,5.18
2023-01-30T07:55:25.970Z,4.66
2023-01-30T07:58:31.320Z,4.98
2023-01-30T08:01:36.864Z,5.19
2023-01-30T08:04:42.216Z,5.41
2023-01-30T08:07:48.496Z,5.48
2023-01-30T08:10:53.988Z,5.77
2023-01-30T08:13:59.338Z,5.42
2023-01-30T08:17:06.774Z,5.79
2023-01-30T08:20:16.977Z,5.23
2023-01-30T08:23:23.048Z,5.06
2023-01-30T08:26:28.417Z,5.12
2023-01-30T08:29:35.684Z,5.35
2023-01-30T08:32:41.439Z,5.24
2023-01-30T08:35:46.897Z,5.52
2023-01-30T08:38:52.386Z,5.86
2023-01-30T08:41:57.775Z,6.05
2023-01-30T08:45:03.378Z,6.12
2023-01-30T08:48:09.359Z,5.77
2023-01-30T08:51:14.844Z,5.90
2023-01-30T08:54:21.258Z,5.82
2023-01-30T08:57:26.658Z,5.56
2023-01-30T09:00:32.036Z,6.08
2023-01-30T09:03:37.394Z,6.28
2023-01-30T09:06:42.931Z,6.13
2023-01-30T09:09:48.721Z,5.77
2023-01-30T09:12:54.845Z,6.11
2023-01-30T09:16:00.623Z,6.08
2023-01-30T09:19:06.031Z,6.04
2023-01-30T09:22:11.450Z,6.28
2023-01-30T09:25:17.389Z,6.12
2023-01-30T09:28:24.247Z,5.83
2023-01-30T09:31:29.699Z,6.05
2023-01-30T09:34:35.338Z,6.42
2023-01-30T09:37:47.561Z,6.54
2023-01-30T09:41:00.217Z,6.16
2023-01-30T09:44:17.542Z,6.50
2023-01-30T09:47:27.767Z,6.55
2023-01-30T09:50:44.568Z,6.22
2023-01-30T09:54:05.253Z,6.12
2023-01-30T09:57:20.596Z,6.09
2023-01-30T10:00:31.701Z,6.64
2023-01-30T10:03:40.677Z,6.26
2023-01-30T10:06:57.981Z,6.65
2023-01-30T10:10:10.277Z,6.71
2023-01-30T10:13:26.218Z,6.65
2023-01-30T10:16:36.285Z,6.79
2023-01-30T10:19:51.439Z,6.97
2023-01-30T10:23:02.359Z,6.76
2023-01-30T10:26:10.734Z,7.17
2023-01-30T10:29:20.959Z,7.83
2023-01-30T10:32:29.107Z,7.72
2023-01-30T10:35:36.428Z,7.74
2023-01-30T10:38:45.830Z,7.95
2023-01-30T10:41:53.744Z,8.07
2023-01-30T10:45:01.796Z,8.23
2023-01-30T10:48:16.726Z,7.62
2023-01-30T10:51:27.920Z,7.65
2023-01-30T10:54:37.030Z,7.79
2023-01-30T10:57:51.425Z,7.64
2023-01-30T11:01:01.178Z,7.31
2023-01-30T11:04:15.369Z,7.44
2023-01-30T11:07:20.874Z,7.28
2023-01-30T11:10:31.119Z,7.89
2023-01-30T11:13:38.510Z,7.86
2023-01-30T11:16:48.164Z,7.60
2023-01-30T11:19:58.124Z,7.12
2023-01-30T11:23:07.824Z,7.31
2023-01-30T11:26:20.623Z,7.84
2023-01-30T11:29:28.623Z,8.23
2023-01-30T11:32:37.313Z,8.01
2023-01-30T11:35:54.403Z,8.37
2023-01-30T11:39:01.322Z,7.98
2023-01-30T11:42:12.083Z,8.35
2023-01-30T11:45:20.530Z,8.51
2023-01-30T11:48:33.008Z,8.78
2023-01-30T11:51:55.633Z,7.90
2023-01-30T11:55:05.669Z,7.74
2023-01-30T11:58:11.190Z,7.55
2023-01-30T12:01:17.951Z,8.19
2023-01-30T12:04:29.495Z,8.71
2023-01-30T12:07:37.724Z,8.62
2023-01-30T12:10:43.883Z,8.32
2023-01-30T12:13:50.253Z,8.18
2023-01-30T12:17:05.008Z,8.01
2023-01-30T12:20:15.240Z,8.21
2023-01-30T12:23:25.549Z,8.32
2023-01-30T12:26:38.048Z,8.51
2023-01-30T12:29:52.114Z,8.62
2023-01-30T12:36:14.983Z,8.90
2023-01-30T12:39:31.614Z,9.34
2023-01-30T12:42:48.794Z,9.02
2023-01-30T12:46:01.833Z,8.89
2023-01-30T12:49:16.276Z,8.85
2023-01-30T12:52:40.938Z,8.62
2023-01-30T12:55:49.143Z,8.71
2023-01-30T12:58:58.663Z,9.10
2023-01-30T13:02:14.277Z,9.30
2023-01-30T13:05:26.574Z,9.31
2023-01-30T13:08:43.812Z,9.63
2023-01-30T13:11:55.715Z,9.91
2023-01-30T13:15:05.016Z,9.84
2023-01-30T13:18:15.322Z,8.88
2023-01-30T13:21:24.579Z,8.21
2023-01-30T13:24:34.229Z,8.63
2023-01-30T13:27:43.852Z,9.16
2023-01-30T13:30:50.937Z,8.76
2023-01-30T13:34:02.648Z,8.65
2023-01-30T13:37:10.053Z,8.85
2023-01-30T13:40:20.660Z,8.61
2023-01-30T13:43:28.511Z,8.80
2023-01-30T13:46:37.235Z,8.73
2023-01-30T13:49:46.963Z,8.75
2023-01-30T13:52:56.523Z,8.77
2023-01-30T13:56:08.945Z,8.58
2023-01-30T13:59:24.960Z,8.24
2023-01-30T14:02:34.330Z,8.71
2023-01-30T14:06:02.006Z,8.25
2023-01-30T14:09:19.091Z,8.30
2023-01-30T14:12:25.937Z,8.30
2023-01-30T14:15:34.113Z,7.88
2023-01-30T14:18:39.705Z,7.64
2023-01-30T14:21:55.040Z,7.09
2023-01-30T14:25:18.415Z,6.99
2023-01-30T14:28:52.702Z,7.06
2023-01-30T14:31:58.106Z,6.37
2023-01-30T14:35:22.784Z,6.34
2023-01-30T14:38:29.674Z,6.14
2023-01-30T14:41:34.977Z,6.20
2023-01-30T14:45:03.769Z,6.44
2023-01-30T14:48:27.513Z,6.41
2023-01-30T14:51:36.061Z,6.25
2023-01-30T14:54:49.423Z,6.83
2023-01-30T14:57:59.525Z,6.47
2023-01-30T15:01:04.998Z,6.45
2023-01-30T15:04:16.671Z,6.43
2023-01-30T15:07:24.333Z,6.49
2023-01-30T15:10:42.141Z,7.12
2023-01-30T15:13:55.882Z,7.25
2023-01-30T15:17:19.694Z,6.95
2023-01-30T15:20:32.457Z,7.41
2023-01-30T15:23:55.362Z,7.43
2023-01-30T15:27:07.015Z,7.38
2023-01-30T15:30:23.757Z,6.97
2023-01-30T15:33:32.153Z,7.49
2023-01-30T15:36:40.759Z,7.57
2023-01-30T15:39:47.485Z,7.19
2023-01-30T15:43:03.459Z,7.10
2023-01-30T15:46:14.407Z,6.77
2023-01-30T15:49:36.317Z,7.08
2023-01-30T15:52:48.296Z,6.95
2023-01-30T15:55:54.758Z,7.08
2023-01-30T15:59:01.521Z,7.12
2023-01-30T16:02:14.695Z,7.18
2023-01-30T16:05:25.269Z,7.59
2023-01-30T16:08:31.579Z,7.93
2023-01-30T16:11:38.819Z,8.20
2023-01-30T16:14:46.167Z,8.24
2023-01-30T16:17:57.000Z,8.04
2023-01-30T16:21:06.342Z,8.03
2023-01-30T16:24:17.735Z,8.23
2023-01-30T16:27:30.388Z,8.49
2023-01-30T16:30:35.945Z,8.47
2023-01-30T16:33:41.576Z,7.92
2023-01-30T16:36:56.309Z,6.99
2023-01-30T16:40:06.139Z,6.74
2023-01-30T16:43:21.862Z,5.91
2023-01-30T16:46:48.553Z,5.72
2023-01-30T16:49:54.387Z,5.28
2023-01-30T16:53:02.352Z,5.05
2023-01-30T16:56:10.858Z,4.70
2023-01-30T16:59:24.356Z,4.67
2023-01-30T17:02:34.378Z,5.31
2023-01-30T17:05:40.533Z,5.57
2023-01-30T17:08:52.397Z,5.90
2023-01-30T17:11:57.775Z,6.02
2023-01-30T17:15:17.091Z,6.43
2023-01-30T17:18:22.856Z,5.97
2023-01-30T17:21:29.172Z,5.61
2023-01-30T17:24:36.339Z,5.40
2023-01-30T17:27:42.053Z,5.36
2023-01-30T17:30:51.508Z,5.33
2023-01-30T17:33:57.249Z,5.56
2023-01-30T17:37:02.789Z,5.42
2023-01-30T17:40:15.418Z,5.44
2023-01-30T17:43:20.847Z,5.10
2023-01-30T17:46:32.434Z,5.17
2023-01-30T17:49:38.042Z,5.64
2023-01-30T17:52:43.460Z,5.31
2023-01-30T17:55:49.990Z,5.38
2023-01-30T17:58:58.756Z,5.84
2023-01-30T18:02:04.324Z,6.01
2023-01-30T18:05:10.597Z,5.78
2023-01-30T18:08:20.224Z,6.02
2023-01-30T18:11:26.728Z,6.32
2023-01-30T18:14:35.660Z,6.16
2023-01-30T18:17:43.891Z,6.24
2023-01-30T18:20:52.097Z,5.88
2023-01-30T18:23:57.503Z,5.49
2023-01-30T18:27:02.936Z,5.84
2023-01-30T18:30:09.324Z,6.20
2023-01-30T18:33:16.272Z,6.09
2023-01-30T18:36:37.984Z,5.96
2023-01-30T18:39:56.860Z,5.20
2023-01-30T18:43:05.211Z,4.91
2023-01-30T18:46:13.235Z,4.80
2023-01-30T18:49:20.023Z,4.85
2023-01-30T18:52:25.595Z,4.70
2023-01-30T18:55:37.800Z,4.83
2023-01-30T18:58:52.485Z,5.00
2023-01-30T19:02:00.307Z,5.01
2023-01-30T19:05:06.063Z,4.92
2023-01-30T19:08:15.225Z,4.89
2023-01-30T19:11:39.475Z,5.52
2023-01-30T19:14:44.982Z,5.41
2023-01-30T19:17:52.862Z,5.52
2023-01-30T19:21:01.408Z,5.57
2023-01-30T19:24:08.297Z,5.84
2023-01-30T19:27:19.951Z,6.07
2023-01-30T19:30:25.770Z,5.75
2023-01-30T19:33:38.705Z,5.40
2023-01-30T19:36:46.383Z,5.26
2023-01-30T19:39:58.003Z,5.36
2023-01-30T19:43:10.924Z,5.26
2023-01-30T19:46:28.872Z,5.23
2023-01-30T19:49:48.544Z,5.18
2023-01-30T19:52:59.718Z,5.13
2023-01-30T19:56:08.444Z,5.75
2023-01-30T19:59:23.711Z,5.55
2023-01-30T20:02:30.220Z,5.32
2023-01-30T20:05:41.007Z,5.69
2023-01-30T20:08:51.630Z,6.03
2023-01-30T20:12:03.024Z,6.08
2023-01-30T20:15:11.555Z,6.31
2023-01-30T20:18:23.724Z,5.88
2023-01-30T20:21:41.919Z,5.96
2023-01-30T20:24:54.794Z,6.22
2023-01-30T20:28:16.239Z,6.76
2023-01-30T20:31:27.333Z,6.86
2023-01-30T20:34:38.107Z,6.54
2023-01-30T20:37:46.342Z,6.22
2023-01-30T20:41:05.496Z,5.75
2023-01-30T20:44:16.523Z,6.08
2023-01-30T20:47:27.438Z,5.25
2023-01-30T20:50:35.954Z,5.18
2023-01-30T20:53:47.201Z,5.67
2023-01-30T20:56:56.740Z,6.10
2023-01-30T21:00:04.414Z,5.87
2023-01-30T21:03:13.140Z,5.96
2023-01-30T21:06:42.531Z,5.60
2023-01-30T21:09:45.410Z,4.97
2023-01-30T21:12:52.996Z,5.01
2023-01-30T21:16:03.294Z,5.13
2023-01-30T21:19:11.151Z,5.44
2023-01-30T21:22:19.678Z,5.90
2023-01-30T21:25:25.540Z,5.40
2023-01-30T21:28:32.085Z,5.55
2023-01-30T21:31:39.220Z,5.37
2023-01-30T21:34:44.572Z,5.32
2023-01-30T21:38:08.233Z,5.51
2023-01-30T21:41:36.965Z,5.43
2023-01-30T21:44:46.618Z,5.20
2023-01-30T21:47:53.508Z,5.50
2023-01-30T21:50:58.959Z,5.31
2023-01-30T21:54:05.874Z,4.98
2023-01-30T21:57:11.395Z,5.21
2023-01-30T22:00:16.791Z,5.34
2023-01-30T22:03:26.731Z,5.44
2023-01-30T22:06:32.283Z,5.12
2023-01-30T22:09:37.977Z,5.55
2023-01-30T22:12:43.685Z,5.53
2023-01-30T22:15:49.050Z,5.74
2023-01-30T22:18:58.221Z,5.26
2023-01-30T22:22:03.956Z,5.46
2023-01-30T22:25:11.715Z,5.69
2023-01-30T22:28:18.479Z,5.66
2023-01-30T22:31:24.671Z,5.50
2023-01-30T22:34:32.776Z,5.70
2023-01-30T22:37:41.131Z,5.71
2023-01-30T22:40:46.581Z,5.52
2023-01-30T22:43:53.442Z,5.59
2023-01-30T22:46:59.002Z,5.55
2023-01-30T22:50:06.684Z,5.16
2023-01-30T22:53:11.932Z,5.29
2023-01-30T22:56:19.996Z,5.17
2023-01-30T22:59:25.295Z,5.01
2023-01-30T23:02:30.751Z,5.28
2023-01-30T23:05:39.204Z,5.49
2023-01-30T23:08:47.977Z,5.08
2023-01-30T23:12:08.386Z,4.95
2023-01-30T23:15:16.009Z,5.07
2023-01-30T23:18:41.703Z,5.25
2023-01-30T23:21:49.946Z,5.30
2023-01-30T23:24:55.348Z,5.20
2023-01-30T23:28:01.271Z,5.13
2023-01-30T23:31:11.328Z,5.27
2023-01-30T23:34:17.402Z,5.04
2023-01-30T23:37:44.846Z,5.26
2023-01-30T23:40:51.181Z,5.14
2023-01-30T23:43:57.171Z,5.04
2023-01-30T23:47:05.258Z,5.07
2023-01-30T23:50:12.606Z,4.96
2023-01-30T23:53:17.875Z,4.96
2023-01-30T23:56:24.061Z,5.19
2023-01-30T23:59:29.643Z,4.79
